sensor_id;sensor_type;location;lat;lon;timestamp;pressure;altitude;pressure_sealevel;temperature;humidity
54592;BME280;40488;48.558;18.150;2023-02-11T00:01:39;101586.72;;;-4.62;77.23
54592;BME280;40488;48.558;18.150;2023-02-11T00:04:08;101583.22;;;-4.64;77.15
54592;BME280;40488;48.558;18.150;2023-02-11T00:06:37;101575.34;;;-4.68;76.84
54592;BME280;40488;48.558;18.150;2023-02-11T00:09:06;101574.16;;;-4.72;77.01
54592;BME280;40488;48.558;18.150;2023-02-11T00:11:37;101582.94;;;-4.67;77.10
54592;BME280;40488;48.558;18.150;2023-02-11T00:14:06;101579.97;;;-4.63;76.89
54592;BME280;40488;48.558;18.150;2023-02-11T00:16:35;101576.75;;;-4.62;76.65
54592;BME280;40488;48.558;18.150;2023-02-11T00:19:04;101575.75;;;-4.64;76.62
54592;BME280;40488;48.558;18.150;2023-02-11T00:21:34;101582.44;;;-4.63;77.34
54592;BME280;40488;48.558;18.150;2023-02-11T00:24:03;101575.25;;;-4.60;76.91
54592;BME280;40488;48.558;18.150;2023-02-11T00:26:34;101577.75;;;-4.60;77.05
54592;BME280;40488;48.558;18.150;2023-02-11T00:29:04;101587.28;;;-4.56;77.19
54592;BME280;40488;48.558;18.150;2023-02-11T00:31:33;101577.16;;;-4.57;77.52
54592;BME280;40488;48.558;18.150;2023-02-11T00:34:04;101583.00;;;-4.57;77.31
54592;BME280;40488;48.558;18.150;2023-02-11T00:36:33;101583.75;;;-4.58;77.27
54592;BME280;40488;48.558;18.150;2023-02-11T00:39:02;101583.50;;;-4.61;77.41
54592;BME280;40488;48.558;18.150;2023-02-11T00:41:33;101587.19;;;-4.66;77.78
54592;BME280;40488;48.558;18.150;2023-02-11T00:44:04;101577.25;;;-4.75;77.34
54592;BME280;40488;48.558;18.150;2023-02-11T00:46:33;101579.44;;;-4.69;77.25
54592;BME280;40488;48.558;18.150;2023-02-11T00:49:01;101578.84;;;-4.66;77.42
54592;BME280;40488;48.558;18.150;2023-02-11T00:51:30;101576.94;;;-4.69;77.36
54592;BME280;40488;48.558;18.150;2023-02-11T00:53:59;101570.94;;;-4.71;77.50
54592;BME280;40488;48.558;18.150;2023-02-11T00:56:28;101577.25;;;-4.75;77.55
54592;BME280;40488;48.558;18.150;2023-02-11T00:58:57;101579.16;;;-4.72;77.20
54592;BME280;40488;48.558;18.150;2023-02-11T01:01:27;101574.78;;;-4.75;77.32
54592;BME280;40488;48.558;18.150;2023-02-11T01:03:56;101582.13;;;-4.76;77.16
54592;BME280;40488;48.558;18.150;2023-02-11T01:06:25;101576.63;;;-4.63;77.71
54592;BME280;40488;48.558;18.150;2023-02-11T01:08:53;101580.53;;;-4.57;77.10
54592;BME280;40488;48.558;18.150;2023-02-11T01:11:22;101576.69;;;-4.53;77.43
54592;BME280;40488;48.558;18.150;2023-02-11T01:13:51;101568.19;;;-4.55;77.07
54592;BME280;40488;48.558;18.150;2023-02-11T01:16:22;101567.72;;;-4.70;77.12
54592;BME280;40488;48.558;18.150;2023-02-11T01:18:54;101563.94;;;-4.75;77.34
54592;BME280;40488;48.558;18.150;2023-02-11T01:21:23;101571.41;;;-4.75;77.22
54592;BME280;40488;48.558;18.150;2023-02-11T01:23:52;101569.97;;;-4.82;77.20
54592;BME280;40488;48.558;18.150;2023-02-11T01:26:21;101575.13;;;-4.80;77.13
54592;BME280;40488;48.558;18.150;2023-02-11T01:28:49;101569.84;;;-4.83;77.18
54592;BME280;40488;48.558;18.150;2023-02-11T01:31:18;101559.88;;;-4.83;77.36
54592;BME280;40488;48.558;18.150;2023-02-11T01:33:47;101558.28;;;-4.83;77.46
54592;BME280;40488;48.558;18.150;2023-02-11T01:36:18;101555.44;;;-4.77;76.80
54592;BME280;40488;48.558;18.150;2023-02-11T01:38:46;101554.84;;;-4.75;77.47
54592;BME280;40488;48.558;18.150;2023-02-11T01:41:19;101553.72;;;-4.78;76.87
54592;BME280;40488;48.558;18.150;2023-02-11T01:43:49;101554.63;;;-4.86;76.98
54592;BME280;40488;48.558;18.150;2023-02-11T01:46:31;101543.94;;;-4.85;77.24
54592;BME280;40488;48.558;18.150;2023-02-11T01:49:05;101544.97;;;-4.83;77.43
54592;BME280;40488;48.558;18.150;2023-02-11T01:51:39;101536.47;;;-4.85;76.88
54592;BME280;40488;48.558;18.150;2023-02-11T01:54:12;101531.69;;;-4.92;76.96
54592;BME280;40488;48.558;18.150;2023-02-11T01:56:54;101524.22;;;-4.92;77.42
54592;BME280;40488;48.558;18.150;2023-02-11T01:59:40;101520.97;;;-4.91;76.81
54592;BME280;40488;48.558;18.150;2023-02-11T02:02:15;101516.06;;;-5.00;77.06
54592;BME280;40488;48.558;18.150;2023-02-11T02:04:49;101513.16;;;-5.04;77.18
54592;BME280;40488;48.558;18.150;2023-02-11T02:07:29;101510.81;;;-5.03;76.96
54592;BME280;40488;48.558;18.150;2023-02-11T02:10:04;101513.69;;;-4.98;77.48
54592;BME280;40488;48.558;18.150;2023-02-11T02:12:35;101508.44;;;-5.01;76.85
54592;BME280;40488;48.558;18.150;2023-02-11T02:15:18;101501.31;;;-5.07;76.79
54592;BME280;40488;48.558;18.150;2023-02-11T02:17:55;101502.94;;;-5.07;76.58
54592;BME280;40488;48.558;18.150;2023-02-11T02:23:42;101493.50;;;-5.01;77.19
54592;BME280;40488;48.558;18.150;2023-02-11T02:32:26;101474.44;;;-4.92;76.88
54592;BME280;40488;48.558;18.150;2023-02-11T02:35:02;101471.94;;;-4.92;76.85
54592;BME280;40488;48.558;18.150;2023-02-11T02:37:36;101463.88;;;-4.90;76.98
54592;BME280;40488;48.558;18.150;2023-02-11T02:40:11;101469.72;;;-4.89;76.62
54592;BME280;40488;48.558;18.150;2023-02-11T02:42:42;101461.22;;;-4.91;77.00
54592;BME280;40488;48.558;18.150;2023-02-11T02:45:13;101465.59;;;-4.89;76.95
54592;BME280;40488;48.558;18.150;2023-02-11T02:47:43;101460.94;;;-4.94;76.78
54592;BME280;40488;48.558;18.150;2023-02-11T02:50:14;101464.94;;;-4.96;76.87
54592;BME280;40488;48.558;18.150;2023-02-11T02:52:54;101458.66;;;-5.01;76.65
54592;BME280;40488;48.558;18.150;2023-02-11T02:55:38;101458.13;;;-5.07;76.62
54592;BME280;40488;48.558;18.150;2023-02-11T03:01:09;101457.72;;;-5.12;76.28
54592;BME280;40488;48.558;18.150;2023-02-11T03:03:48;101460.06;;;-5.13;76.57
54592;BME280;40488;48.558;18.150;2023-02-11T03:06:24;101459.34;;;-5.12;76.38
54592;BME280;40488;48.558;18.150;2023-02-11T03:09:02;101449.94;;;-5.06;76.63
54592;BME280;40488;48.558;18.150;2023-02-11T03:11:36;101450.19;;;-5.03;76.76
54592;BME280;40488;48.558;18.150;2023-02-11T03:14:09;101451.94;;;-5.02;76.34
54592;BME280;40488;48.558;18.150;2023-02-11T03:16:42;101457.56;;;-5.13;76.47
54592;BME280;40488;48.558;18.150;2023-02-11T03:19:16;101447.38;;;-5.16;76.52
54592;BME280;40488;48.558;18.150;2023-02-11T03:21:48;101438.28;;;-5.16;76.25
54592;BME280;40488;48.558;18.150;2023-02-11T03:24:22;101443.13;;;-5.17;76.49
54592;BME280;40488;48.558;18.150;2023-02-11T03:26:56;101447.56;;;-5.23;76.11
54592;BME280;40488;48.558;18.150;2023-02-11T03:29:32;101441.28;;;-5.28;76.44
54592;BME280;40488;48.558;18.150;2023-02-11T03:32:07;101443.13;;;-5.45;76.31
54592;BME280;40488;48.558;18.150;2023-02-11T03:34:46;101434.66;;;-5.47;76.43
54592;BME280;40488;48.558;18.150;2023-02-11T03:37:20;101399.19;;;-5.63;76.03
54592;BME280;40488;48.558;18.150;2023-02-11T03:39:53;101423.84;;;-5.47;75.85
54592;BME280;40488;48.558;18.150;2023-02-11T03:42:30;101424.75;;;-5.55;76.18
54592;BME280;40488;48.558;18.150;2023-02-11T03:45:05;101421.53;;;-5.54;75.94
54592;BME280;40488;48.558;18.150;2023-02-11T03:47:37;101411.31;;;-5.57;76.37
54592;BME280;40488;48.558;18.150;2023-02-11T03:50:11;101423.84;;;-5.47;76.11
54592;BME280;40488;48.558;18.150;2023-02-11T03:52:43;101415.03;;;-5.44;76.30
54592;BME280;40488;48.558;18.150;2023-02-11T03:55:16;101410.34;;;-5.40;76.20
54592;BME280;40488;48.558;18.150;2023-02-11T03:57:46;101408.94;;;-5.47;76.16
54592;BME280;40488;48.558;18.150;2023-02-11T04:00:15;101404.81;;;-5.47;76.13
54592;BME280;40488;48.558;18.150;2023-02-11T04:02:44;101398.81;;;-5.49;76.14
54592;BME280;40488;48.558;18.150;2023-02-11T04:05:15;101408.06;;;-5.48;76.37
54592;BME280;40488;48.558;18.150;2023-02-11T04:07:44;101404.28;;;-5.53;76.21
54592;BME280;40488;48.558;18.150;2023-02-11T04:10:13;101403.69;;;-5.59;76.33
54592;BME280;40488;48.558;18.150;2023-02-11T04:12:42;101401.22;;;-5.59;76.26
54592;BME280;40488;48.558;18.150;2023-02-11T04:15:11;101394.94;;;-5.64;76.20
54592;BME280;40488;48.558;18.150;2023-02-11T04:17:40;101390.56;;;-5.66;76.35
54592;BME280;40488;48.558;18.150;2023-02-11T04:20:10;101384.75;;;-5.67;76.36
54592;BME280;40488;48.558;18.150;2023-02-11T04:22:40;101388.97;;;-5.66;76.15
54592;BME280;40488;48.558;18.150;2023-02-11T04:25:09;101380.78;;;-5.65;76.34
54592;BME280;40488;48.558;18.150;2023-02-11T04:27:38;101385.19;;;-5.71;76.43
54592;BME280;40488;48.558;18.150;2023-02-11T04:30:10;101385.19;;;-5.71;76.10
54592;BME280;40488;48.558;18.150;2023-02-11T04:32:40;101387.28;;;-5.75;76.26
54592;BME280;40488;48.558;18.150;2023-02-11T04:35:08;101386.53;;;-5.74;76.31
54592;BME280;40488;48.558;18.150;2023-02-11T04:37:37;101388.56;;;-5.70;76.69
54592;BME280;40488;48.558;18.150;2023-02-11T04:40:08;101392.66;;;-5.71;76.69
54592;BME280;40488;48.558;18.150;2023-02-11T04:42:38;101390.56;;;-5.66;76.66
54592;BME280;40488;48.558;18.150;2023-02-11T04:45:07;101390.25;;;-5.61;76.58
54592;BME280;40488;48.558;18.150;2023-02-11T04:47:36;101387.88;;;-5.51;76.53
54592;BME280;40488;48.558;18.150;2023-02-11T04:50:05;101383.19;;;-5.48;76.55
54592;BME280;40488;48.558;18.150;2023-02-11T04:52:34;101374.97;;;-5.47;76.45
54592;BME280;40488;48.558;18.150;2023-02-11T04:55:03;101371.75;;;-5.46;76.69
54592;BME280;40488;48.558;18.150;2023-02-11T04:57:33;101373.75;;;-5.42;76.50
54592;BME280;40488;48.558;18.150;2023-02-11T05:00:03;101382.59;;;-5.45;76.80
54592;BME280;40488;48.558;18.150;2023-02-11T05:02:31;101395.13;;;-5.44;76.38
54592;BME280;40488;48.558;18.150;2023-02-11T05:05:00;101395.75;;;-5.46;76.71
54592;BME280;40488;48.558;18.150;2023-02-11T05:07:29;101395.13;;;-5.44;76.51
54592;BME280;40488;48.558;18.150;2023-02-11T05:09:58;101387.78;;;-5.33;76.92
54592;BME280;40488;48.558;18.150;2023-02-11T05:12:27;101390.06;;;-5.26;77.01
54592;BME280;40488;48.558;18.150;2023-02-11T05:14:57;101378.94;;;-5.30;76.53
54592;BME280;40488;48.558;18.150;2023-02-11T05:17:26;101373.13;;;-5.30;76.60
54592;BME280;40488;48.558;18.150;2023-02-11T05:19:55;101372.44;;;-5.19;76.61
54592;BME280;40488;48.558;18.150;2023-02-11T05:22:24;101377.69;;;-5.16;76.57
54592;BME280;40488;48.558;18.150;2023-02-11T05:24:52;101371.63;;;-5.10;77.12
54592;BME280;40488;48.558;18.150;2023-02-11T05:27:21;101384.06;;;-5.10;76.81
54592;BME280;40488;48.558;18.150;2023-02-11T05:29:50;101374.41;;;-5.07;77.01
54592;BME280;40488;48.558;18.150;2023-02-11T05:32:20;101368.25;;;-5.10;77.04
54592;BME280;40488;48.558;18.150;2023-02-11T05:34:49;101357.44;;;-5.11;76.95
54592;BME280;40488;48.558;18.150;2023-02-11T05:37:18;101358.88;;;-5.04;77.19
54592;BME280;40488;48.558;18.150;2023-02-11T05:39:47;101354.63;;;-5.05;77.21
54592;BME280;40488;48.558;18.150;2023-02-11T05:42:16;101355.50;;;-5.05;77.01
54592;BME280;40488;48.558;18.150;2023-02-11T05:44:45;101353.88;;;-5.04;76.71
54592;BME280;40488;48.558;18.150;2023-02-11T05:47:16;101356.09;;;-5.07;77.22
54592;BME280;40488;48.558;18.150;2023-02-11T05:49:47;101348.03;;;-5.05;77.36
54592;BME280;40488;48.558;18.150;2023-02-11T05:52:15;101345.31;;;-4.98;77.20
54592;BME280;40488;48.558;18.150;2023-02-11T05:54:44;101336.25;;;-4.97;77.36
54592;BME280;40488;48.558;18.150;2023-02-11T05:57:13;101336.50;;;-4.94;77.42
54592;BME280;40488;48.558;18.150;2023-02-11T05:59:42;101344.03;;;-4.84;77.14
54592;BME280;40488;48.558;18.150;2023-02-11T06:02:11;101338.59;;;-4.80;77.04
54592;BME280;40488;48.558;18.150;2023-02-11T06:04:40;101331.34;;;-4.77;76.99
54592;BME280;40488;48.558;18.150;2023-02-11T06:07:12;101318.28;;;-4.75;77.51
54592;BME280;40488;48.558;18.150;2023-02-11T06:09:41;101335.13;;;-4.72;77.38
54592;BME280;40488;48.558;18.150;2023-02-11T06:12:09;101335.38;;;-4.69;76.64
54592;BME280;40488;48.558;18.150;2023-02-11T06:14:39;101331.28;;;-4.68;77.04
54592;BME280;40488;48.558;18.150;2023-02-11T06:17:08;101322.53;;;-4.73;76.88
54592;BME280;40488;48.558;18.150;2023-02-11T06:19:36;101325.78;;;-4.75;76.63
54592;BME280;40488;48.558;18.150;2023-02-11T06:22:05;101321.66;;;-4.74;77.19
54592;BME280;40488;48.558;18.150;2023-02-11T06:24:36;101309.72;;;-4.78;76.96
54592;BME280;40488;48.558;18.150;2023-02-11T06:27:24;101305.41;;;-4.89;76.77
54592;BME280;40488;48.558;18.150;2023-02-11T06:29:53;101304.78;;;-4.97;76.78
54592;BME280;40488;48.558;18.150;2023-02-11T06:32:22;101307.66;;;-4.92;76.96
54592;BME280;40488;48.558;18.150;2023-02-11T06:35:10;101301.47;;;-4.87;77.46
54592;BME280;40488;48.558;18.150;2023-02-11T06:37:39;101291.78;;;-5.03;77.12
54592;BME280;40488;48.558;18.150;2023-02-11T06:40:10;101304.84;;;-5.05;77.52
54592;BME280;40488;48.558;18.150;2023-02-11T06:42:39;101299.88;;;-5.05;77.21
54592;BME280;40488;48.558;18.150;2023-02-11T06:45:09;101323.88;;;-4.87;77.58
54592;BME280;40488;48.558;18.150;2023-02-11T06:47:40;101312.41;;;-4.85;77.52
54592;BME280;40488;48.558;18.150;2023-02-11T06:50:11;101310.66;;;-4.86;77.69
54592;BME280;40488;48.558;18.150;2023-02-11T06:52:41;101315.91;;;-4.83;77.58
54592;BME280;40488;48.558;18.150;2023-02-11T06:55:11;101305.25;;;-4.72;77.21
54592;BME280;40488;48.558;18.150;2023-02-11T06:57:40;101322.09;;;-4.59;77.79
54592;BME280;40488;48.558;18.150;2023-02-11T07:00:10;101314.94;;;-4.46;77.83
54592;BME280;40488;48.558;18.150;2023-02-11T07:02:38;101317.44;;;-4.36;77.63
54592;BME280;40488;48.558;18.150;2023-02-11T07:05:08;101296.00;;;-4.34;77.25
54592;BME280;40488;48.558;18.150;2023-02-11T07:07:37;101318.47;;;-4.24;77.68
54592;BME280;40488;48.558;18.150;2023-02-11T07:10:06;101319.88;;;-4.18;77.69
54592;BME280;40488;48.558;18.150;2023-02-11T07:12:36;101322.13;;;-4.11;77.81
54592;BME280;40488;48.558;18.150;2023-02-11T07:15:05;101315.25;;;-4.03;77.36
54592;BME280;40488;48.558;18.150;2023-02-11T07:17:34;101315.25;;;-4.03;77.60
54592;BME280;40488;48.558;18.150;2023-02-11T07:20:04;101306.38;;;-4.20;77.79
54592;BME280;40488;48.558;18.150;2023-02-11T07:22:33;101322.13;;;-4.11;77.76
54592;BME280;40488;48.558;18.150;2023-02-11T07:25:02;101314.13;;;-4.07;77.67
54592;BME280;40488;48.558;18.150;2023-02-11T07:27:31;101313.16;;;-3.98;77.73
54592;BME280;40488;48.558;18.150;2023-02-11T07:30:01;101313.06;;;-3.80;77.97
54592;BME280;40488;48.558;18.150;2023-02-11T07:32:33;101311.41;;;-3.69;77.19
54592;BME280;40488;48.558;18.150;2023-02-11T07:35:03;101317.44;;;-3.67;77.59
54592;BME280;40488;48.558;18.150;2023-02-11T07:37:32;101313.44;;;-3.55;77.17
54592;BME280;40488;48.558;18.150;2023-02-11T07:40:02;101300.19;;;-3.54;77.44
54592;BME280;40488;48.558;18.150;2023-02-11T07:42:32;101315.41;;;-3.51;76.99
54592;BME280;40488;48.558;18.150;2023-02-11T07:45:03;101325.50;;;-3.40;77.04
54592;BME280;40488;48.558;18.150;2023-02-11T07:47:33;101317.38;;;-3.27;77.56
54592;BME280;40488;48.558;18.150;2023-02-11T07:50:01;101324.59;;;-3.20;76.90
54592;BME280;40488;48.558;18.150;2023-02-11T07:52:30;101318.34;;;-3.15;77.13
54592;BME280;40488;48.558;18.150;2023-02-11T07:54:59;101317.38;;;-3.17;76.99
54592;BME280;40488;48.558;18.150;2023-02-11T07:57:31;101308.59;;;-3.12;76.73
54592;BME280;40488;48.558;18.150;2023-02-11T07:59:59;101293.88;;;-3.19;76.59
54592;BME280;40488;48.558;18.150;2023-02-11T08:02:38;101311.56;;;-2.96;76.52
54592;BME280;40488;48.558;18.150;2023-02-11T08:05:07;101310.53;;;-2.88;76.71
54592;BME280;40488;48.558;18.150;2023-02-11T08:07:36;101305.53;;;-2.88;76.37
54592;BME280;40488;48.558;18.150;2023-02-11T08:10:05;101295.69;;;-2.96;76.52
54592;BME280;40488;48.558;18.150;2023-02-11T08:12:34;101310.78;;;-2.85;76.56
54592;BME280;40488;48.558;18.150;2023-02-11T08:15:03;101302.38;;;-2.75;76.28
54592;BME280;40488;48.558;18.150;2023-02-11T08:17:33;101289.63;;;-2.78;75.92
54592;BME280;40488;48.558;18.150;2023-02-11T08:20:05;101283.78;;;-2.79;76.14
54592;BME280;40488;48.558;18.150;2023-02-11T08:22:34;101296.34;;;-2.67;76.54
54592;BME280;40488;48.558;18.150;2023-02-11T08:25:03;101286.13;;;-2.48;76.30
54592;BME280;40488;48.558;18.150;2023-02-11T08:27:33;101287.81;;;-2.37;76.06
54592;BME280;40488;48.558;18.150;2023-02-11T08:30:01;101286.22;;;-2.25;75.39
54592;BME280;40488;48.558;18.150;2023-02-11T08:32:30;101277.25;;;-2.23;75.79
54592;BME280;40488;48.558;18.150;2023-02-11T08:35:01;101277.94;;;-2.14;75.75
54592;BME280;40488;48.558;18.150;2023-02-11T08:37:31;101284.34;;;-2.06;75.62
54592;BME280;40488;48.558;18.150;2023-02-11T08:40:00;101277.09;;;-2.03;75.34
54592;BME280;40488;48.558;18.150;2023-02-11T08:42:29;101279.16;;;-2.09;74.95
54592;BME280;40488;48.558;18.150;2023-02-11T08:44:58;101272.28;;;-2.12;75.24
54592;BME280;40488;48.558;18.150;2023-02-11T08:47:27;101276.22;;;-2.04;75.25
54592;BME280;40488;48.558;18.150;2023-02-11T08:49:56;101271.78;;;-1.96;75.34
54592;BME280;40488;48.558;18.150;2023-02-11T08:52:24;101263.97;;;-1.89;75.63
54592;BME280;40488;48.558;18.150;2023-02-11T08:54:55;101276.72;;;-1.86;75.37
54592;BME280;40488;48.558;18.150;2023-02-11T08:57:24;101268.22;;;-1.88;75.38
54592;BME280;40488;48.558;18.150;2023-02-11T08:59:54;101271.28;;;-1.80;75.64
54592;BME280;40488;48.558;18.150;2023-02-11T09:02:23;101273.16;;;-1.66;75.91
54592;BME280;40488;48.558;18.150;2023-02-11T09:04:53;101264.25;;;-1.63;75.91
54592;BME280;40488;48.558;18.150;2023-02-11T09:07:22;101269.69;;;-1.57;75.35
54592;BME280;40488;48.558;18.150;2023-02-11T09:09:51;101267.06;;;-1.58;75.28
54592;BME280;40488;48.558;18.150;2023-02-11T09:12:21;101256.53;;;-1.54;75.13
54592;BME280;40488;48.558;18.150;2023-02-11T09:14:50;101256.97;;;-1.48;75.04
54592;BME280;40488;48.558;18.150;2023-02-11T09:17:19;101253.25;;;-1.42;74.77
54592;BME280;40488;48.558;18.150;2023-02-11T09:19:48;101250.25;;;-1.38;74.71
54592;BME280;40488;48.558;18.150;2023-02-11T09:22:17;101258.06;;;-1.33;74.79
54592;BME280;40488;48.558;18.150;2023-02-11T09:24:46;101250.88;;;-1.28;74.77
54592;BME280;40488;48.558;18.150;2023-02-11T09:27:14;101253.72;;;-1.24;74.66
54592;BME280;40488;48.558;18.150;2023-02-11T09:29:45;101268.09;;;-1.21;74.53
54592;BME280;40488;48.558;18.150;2023-02-11T09:32:13;101270.03;;;-1.17;74.69
54592;BME280;40488;48.558;18.150;2023-02-11T09:34:42;101265.47;;;-1.11;74.65
54592;BME280;40488;48.558;18.150;2023-02-11T09:37:11;101270.91;;;-1.05;74.56
54592;BME280;40488;48.558;18.150;2023-02-11T09:39:40;101273.31;;;-0.95;75.16
54592;BME280;40488;48.558;18.150;2023-02-11T09:42:26;101283.31;;;-0.84;74.85
54592;BME280;40488;48.558;18.150;2023-02-11T09:45:11;101287.31;;;-0.74;74.89
54592;BME280;40488;48.558;18.150;2023-02-11T09:47:47;101277.19;;;-0.64;74.77
54592;BME280;40488;48.558;18.150;2023-02-11T09:50:20;101272.59;;;-0.58;74.60
54592;BME280;40488;48.558;18.150;2023-02-11T09:52:55;101262.22;;;-0.51;74.52
54592;BME280;40488;48.558;18.150;2023-02-11T09:55:28;101249.47;;;-0.54;74.31
54592;BME280;40488;48.558;18.150;2023-02-11T09:57:57;101239.66;;;-0.51;74.25
54592;BME280;40488;48.558;18.150;2023-02-11T10:00:30;101241.19;;;-0.53;74.18
54592;BME280;40488;48.558;18.150;2023-02-11T10:06:05;101233.59;;;-0.66;74.56
54592;BME280;40488;48.558;18.150;2023-02-11T10:08:42;101223.78;;;-0.63;74.90
54592;BME280;40488;48.558;18.150;2023-02-11T10:11:19;101228.31;;;-0.57;74.98
54592;BME280;40488;48.558;18.150;2023-02-11T10:14:09;101231.63;;;-0.58;75.22
54592;BME280;40488;48.558;18.150;2023-02-11T10:16:54;101223.31;;;-0.57;75.52
54592;BME280;40488;48.558;18.150;2023-02-11T10:19:37;101205.66;;;-0.59;75.56
54592;BME280;40488;48.558;18.150;2023-02-11T10:22:15;101208.03;;;-0.49;75.53
54592;BME280;40488;48.558;18.150;2023-02-11T10:24:51;101196.69;;;-0.44;75.94
54592;BME280;40488;48.558;18.150;2023-02-11T10:27:27;101185.97;;;-0.41;75.73
54592;BME280;40488;48.558;18.150;2023-02-11T10:30:03;101189.59;;;-0.25;75.99
54592;BME280;40488;48.558;18.150;2023-02-11T10:32:41;101189.25;;;-0.05;75.73
54592;BME280;40488;48.558;18.150;2023-02-11T10:35:14;101199.16;;;0.19;75.74
54592;BME280;40488;48.558;18.150;2023-02-11T10:37:44;101199.97;;;0.31;75.39
54592;BME280;40488;48.558;18.150;2023-02-11T10:40:14;101182.56;;;0.47;75.71
54592;BME280;40488;48.558;18.150;2023-02-11T10:42:47;101174.06;;;0.71;75.25
54592;BME280;40488;48.558;18.150;2023-02-11T10:45:24;101159.63;;;1.22;74.73
54592;BME280;40488;48.558;18.150;2023-02-11T10:47:56;101142.19;;;1.39;74.01
54592;BME280;40488;48.558;18.150;2023-02-11T10:50:28;101151.63;;;1.43;74.16
54592;BME280;40488;48.558;18.150;2023-02-11T10:53:18;101146.28;;;1.51;74.44
54592;BME280;40488;48.558;18.150;2023-02-11T10:55:52;101127.47;;;1.74;73.04
54592;BME280;40488;48.558;18.150;2023-02-11T10:58:24;101117.41;;;1.74;72.99
54592;BME280;40488;48.558;18.150;2023-02-11T11:00:56;101108.13;;;1.73;72.54
54592;BME280;40488;48.558;18.150;2023-02-11T11:03:30;101107.59;;;1.64;71.16
54592;BME280;40488;48.558;18.150;2023-02-11T11:06:03;101130.50;;;1.83;71.19
54592;BME280;40488;48.558;18.150;2023-02-11T11:08:39;101136.50;;;2.14;70.56
54592;BME280;40488;48.558;18.150;2023-02-11T11:11:11;101131.38;;;2.27;69.97
54592;BME280;40488;48.558;18.150;2023-02-11T11:13:41;101137.41;;;2.45;68.57
54592;BME280;40488;48.558;18.150;2023-02-11T11:16:24;101139.47;;;2.52;68.60
54592;BME280;40488;48.558;18.150;2023-02-11T11:19:18;101133.88;;;2.72;67.89
54592;BME280;40488;48.558;18.150;2023-02-11T11:21:49;101130.78;;;2.93;67.85
54592;BME280;40488;48.558;18.150;2023-02-11T11:24:26;101127.63;;;3.13;66.36
54592;BME280;40488;48.558;18.150;2023-02-11T11:26:58;101116.91;;;3.01;65.78
54592;BME280;40488;48.558;18.150;2023-02-11T11:29:32;101099.56;;;3.23;66.07
54592;BME280;40488;48.558;18.150;2023-02-11T11:32:04;101101.59;;;3.46;65.83
54592;BME280;40488;48.558;18.150;2023-02-11T11:34:37;101095.31;;;3.38;66.19
54592;BME280;40488;48.558;18.150;2023-02-11T11:37:10;101091.19;;;3.24;66.60
54592;BME280;40488;48.558;18.150;2023-02-11T11:39:40;101083.91;;;3.46;66.88
54592;BME280;40488;48.558;18.150;2023-02-11T11:42:24;101075.38;;;3.60;66.54
54592;BME280;40488;48.558;18.150;2023-02-11T11:44:59;101080.13;;;3.54;65.69
54592;BME280;40488;48.558;18.150;2023-02-11T11:47:38;101070.53;;;3.47;65.79
54592;BME280;40488;48.558;18.150;2023-02-11T11:50:24;101069.72;;;3.64;66.21
54592;BME280;40488;48.558;18.150;2023-02-11T11:52:59;101070.44;;;3.79;65.79
54592;BME280;40488;48.558;18.150;2023-02-11T11:55:35;101068.28;;;3.69;65.04
54592;BME280;40488;48.558;18.150;2023-02-11T11:58:11;101062.47;;;3.54;65.32
54592;BME280;40488;48.558;18.150;2023-02-11T12:00:46;101062.47;;;3.54;65.26
54592;BME280;40488;48.558;18.150;2023-02-11T12:03:38;101050.63;;;3.53;64.94
54592;BME280;40488;48.558;18.150;2023-02-11T12:06:22;101046.75;;;3.60;65.25
54592;BME280;40488;48.558;18.150;2023-02-11T12:09:03;101041.44;;;3.89;65.18
54592;BME280;40488;48.558;18.150;2023-02-11T12:11:48;101018.78;;;3.90;64.03
54592;BME280;40488;48.558;18.150;2023-02-11T12:14:30;101020.81;;;3.97;63.97
54592;BME280;40488;48.558;18.150;2023-02-11T12:17:06;101011.84;;;3.86;63.98
54592;BME280;40488;48.558;18.150;2023-02-11T12:20:02;101018.66;;;3.87;63.39
54592;BME280;40488;48.558;18.150;2023-02-11T12:22:47;101022.84;;;4.04;63.35
54592;BME280;40488;48.558;18.150;2023-02-11T12:25:25;101022.25;;;3.92;63.32
54592;BME280;40488;48.558;18.150;2023-02-11T12:28:06;101017.94;;;3.90;63.67
54592;BME280;40488;48.558;18.150;2023-02-11T12:31:02;101014.44;;;4.05;63.34
54592;BME280;40488;48.558;18.150;2023-02-11T12:33:49;101014.88;;;4.15;63.39
54592;BME280;40488;48.558;18.150;2023-02-11T12:36:43;101012.72;;;4.04;62.59
54592;BME280;40488;48.558;18.150;2023-02-11T12:39:24;101012.16;;;3.92;63.20
54592;BME280;40488;48.558;18.150;2023-02-11T12:42:13;101000.91;;;3.86;63.50
54592;BME280;40488;48.558;18.150;2023-02-11T12:45:10;100995.72;;;3.83;63.23
54592;BME280;40488;48.558;18.150;2023-02-11T12:47:53;100984.88;;;3.85;63.00
54592;BME280;40488;48.558;18.150;2023-02-11T12:50:34;100987.91;;;3.78;62.93
54592;BME280;40488;48.558;18.150;2023-02-11T12:56:15;100967.41;;;3.72;63.62
54592;BME280;40488;48.558;18.150;2023-02-11T12:58:46;100952.41;;;3.75;63.79
54592;BME280;40488;48.558;18.150;2023-02-11T13:01:20;100950.31;;;3.84;63.79
54592;BME280;40488;48.558;18.150;2023-02-11T13:03:54;100943.91;;;3.91;63.25
54592;BME280;40488;48.558;18.150;2023-02-11T13:06:29;100939.19;;;3.98;63.39
54592;BME280;40488;48.558;18.150;2023-02-11T13:09:02;100954.56;;;4.03;62.96
54592;BME280;40488;48.558;18.150;2023-02-11T13:11:36;100965.41;;;4.00;63.30
54592;BME280;40488;48.558;18.150;2023-02-11T13:14:11;100982.78;;;3.94;63.00
54592;BME280;40488;48.558;18.150;2023-02-11T13:16:44;100987.69;;;3.91;63.19
54592;BME280;40488;48.558;18.150;2023-02-11T13:19:18;101010.34;;;3.90;63.69
54592;BME280;40488;48.558;18.150;2023-02-11T13:22:02;101015.25;;;3.87;63.66
54592;BME280;40488;48.558;18.150;2023-02-11T13:24:40;101009.00;;;3.79;63.94
54592;BME280;40488;48.558;18.150;2023-02-11T13:27:23;101013.00;;;3.75;63.64
54592;BME280;40488;48.558;18.150;2023-02-11T13:30:22;101020.22;;;3.68;64.24